LQSA/SJJ METAR and TAF weather

Enter ICAO airport designator
Station Type Date Time Source
LQSA METAR 2020/11/28 19:00 UTC NOAA

LQSA 281900Z 00000KT 4000 BR NSC M01/M01 Q1017


Station Type Date Time Source
LQSA Decoded METAR 2020/11/28 19:00 UTC NOAA

Sarajevo, Bosnia and Herzegovina (LQSA) 43-49N 018-20E 510M
Nov 28, 2020 - 02:00 PM EST / 2020.11.28 1900 UTC
Wind: Calm:0
Visibility: 2 mile(s):0
Weather: mist
Temperature: 30 F (-1 C)
Dew Point: 30 F (-1 C)
Relative Humidity: 100%
Pressure (altimeter): 30.03 in. Hg (1017 hPa)
ob: LQSA 281900Z 00000KT 4000 BR NSC M01/M01 Q1017
cycle: 19

Station Type Date Time Source
LQSA TAF 2020/11/28 18:06 UTC NOAA

TAF LQSA 281700Z 2818/2918 VRB02KT 6000 SCT045 TX03/2913Z TNM03/2903Z PROB40 2818/2824 2000 BR BKN005
TEMPO 2906/2912 2000 -SN BKN012 OVC030

Example: see airport list